Sandy Valley, NV (89019)

5:16 AM PST on February 14, 2016 (GMT -0800)
MC Lazy D | | Change Station
CLOSE
Current Station
Personal Weather Station
Location: Sandy Valley, NV
Elevation: 2703 ft
Nearby Weather Stations

Elev 2703 ft 35.84 °N, 115.65 °W | Updated 5 minutes ago

Clear
Clear
40.8 °F
Feels Like 37 °F
N
5.3
Wind Variable Wind from WNW

Today
High -- | Low -- °F
--% Chance of Precip.
Yesterday
High -- | Low -- °F
Precip. -- in
Pressure 30.10 in
Visibility 10.0 miles
Clouds Clear
Windchill 37 °F
Dew Point 25 °F
Humidity 53%
Rainfall 0.00 in
Snow Depth Not available.
6:31 AM 5:22 PM
Waxing Crescent, 41% visible
METAR KHND 141256Z AUTO 21009KT 10SM CLR 07/M08 A3011 RMK AO2 SLP193 T00671083
Pressure 30.10 in
Visibility 10.0 miles
Clouds Clear
Windchill 37 °F
Dew Point 25 °F
Humidity 53%
Rainfall 0.00 in
Snow Depth Not available.
6:31 AM 5:22 PM
Waxing Crescent, 41% visible
METAR KHND 141256Z AUTO 21009KT 10SM CLR 07/M08 A3011 RMK AO2 SLP193 T00671083

10-Day Weather Forecast

Almanac

Astronomy

Feb. 14, 2016 Rise Set
Actual Time
Civil Twilight
Nautical Twilight
Astronomical Twilight
Moon
Length of Visible Light
Length of Day
Tomorrow will be .
, % of the Moon is Illuminated

Today's Extremes

State Highs State Lows

Community

WunderPhotos

Upload Photos

1,892,783 photos uploaded!

WunderBlog® & News

Nearby

Air Quality

  Air Quality AQ Index Pollutant
Not available.

Snow Depth

Station Depth Elevation

Earthquake Activity

City Distance Mag. Time & Date
Minimum magnitude displayed is 2.5.

Coastal Water Temperatures

Place Temperature

Stations

Nearby Weather Stations

Station Location Temp. Windchill Dew Point Humidity Wind Precip. Elev Updated Type
                   

Watches & Warnings

There are currently no watches in effect.